sensor_id;sensor_type;location;lat;lon;timestamp;pressure;altitude;pressure_sealevel;temperature;humidity
50292;BME280;36190;54.980;73.388;2023-02-12T00:00:04;101790.78;;;-21.02;61.29
50292;BME280;36190;54.980;73.388;2023-02-12T00:02:32;101804.56;;;-20.97;61.21
50292;BME280;36190;54.980;73.388;2023-02-12T00:05:00;101805.56;;;-20.93;61.10
50292;BME280;36190;54.980;73.388;2023-02-12T00:07:30;101807.28;;;-20.92;61.11
50292;BME280;36190;54.980;73.388;2023-02-12T00:09:57;101807.28;;;-20.92;60.90
50292;BME280;36190;54.980;73.388;2023-02-12T00:12:25;101809.91;;;-20.91;61.04
50292;BME280;36190;54.980;73.388;2023-02-12T00:14:52;101803.13;;;-20.90;60.88
50292;BME280;36190;54.980;73.388;2023-02-12T00:17:20;101798.13;;;-20.89;60.92
50292;BME280;36190;54.980;73.388;2023-02-12T00:19:47;101800.75;;;-20.87;60.77
50292;BME280;36190;54.980;73.388;2023-02-12T00:22:16;101803.09;;;-20.92;60.94
50292;BME280;36190;54.980;73.388;2023-02-12T00:24:44;101800.47;;;-20.93;60.91
50292;BME280;36190;54.980;73.388;2023-02-12T00:27:12;101797.56;;;-21.03;60.86
50292;BME280;36190;54.980;73.388;2023-02-12T00:29:39;101804.16;;;-21.06;60.70
50292;BME280;36190;54.980;73.388;2023-02-12T00:32:07;101810.41;;;-21.18;60.69
50292;BME280;36190;54.980;73.388;2023-02-12T00:34:34;101809.28;;;-21.24;60.81
50292;BME280;36190;54.980;73.388;2023-02-12T00:37:01;101802.94;;;-21.34;60.63
50292;BME280;36190;54.980;73.388;2023-02-12T00:39:29;101803.22;;;-21.48;60.88
50292;BME280;36190;54.980;73.388;2023-02-12T00:41:58;101803.00;;;-21.52;60.92
50292;BME280;36190;54.980;73.388;2023-02-12T00:44:25;101798.66;;;-21.55;61.00
50292;BME280;36190;54.980;73.388;2023-02-12T00:46:53;101802.84;;;-21.55;61.01
50292;BME280;36190;54.980;73.388;2023-02-12T00:49:20;101803.81;;;-21.53;61.04
50292;BME280;36190;54.980;73.388;2023-02-12T00:51:48;101806.47;;;-21.50;61.00
50292;BME280;36190;54.980;73.388;2023-02-12T00:54:15;101814.28;;;-21.46;60.76
50292;BME280;36190;54.980;73.388;2023-02-12T00:56:43;101813.84;;;-21.37;61.14
50292;BME280;36190;54.980;73.388;2023-02-12T00:59:11;101815.81;;;-21.30;60.96
50292;BME280;36190;54.980;73.388;2023-02-12T01:01:39;101823.69;;;-21.23;60.91
50292;BME280;36190;54.980;73.388;2023-02-12T01:04:06;101826.59;;;-21.16;60.88
50292;BME280;36190;54.980;73.388;2023-02-12T01:06:34;101819.31;;;-21.08;61.06
50292;BME280;36190;54.980;73.388;2023-02-12T01:09:01;101801.75;;;-21.03;61.00
50292;BME280;36190;54.980;73.388;2023-02-12T01:11:29;101814.09;;;-20.91;61.02
50292;BME280;36190;54.980;73.388;2023-02-12T01:13:56;101810.13;;;-20.84;61.06
50292;BME280;36190;54.980;73.388;2023-02-12T01:16:26;101814.59;;;-20.79;60.91
50292;BME280;36190;54.980;73.388;2023-02-12T01:18:54;101818.06;;;-20.77;60.87
50292;BME280;36190;54.980;73.388;2023-02-12T01:21:24;101805.03;;;-20.86;60.90
50292;BME280;36190;54.980;73.388;2023-02-12T01:23:51;101820.66;;;-20.75;61.00
50292;BME280;36190;54.980;73.388;2023-02-12T01:26:20;101823.00;;;-20.80;61.13
50292;BME280;36190;54.980;73.388;2023-02-12T01:28:49;101830.66;;;-20.78;60.92
50292;BME280;36190;54.980;73.388;2023-02-12T01:31:18;101826.59;;;-20.75;61.20
50292;BME280;36190;54.980;73.388;2023-02-12T01:33:49;101832.59;;;-20.72;61.13
50292;BME280;36190;54.980;73.388;2023-02-12T01:36:17;101839.44;;;-20.71;61.26
50292;BME280;36190;54.980;73.388;2023-02-12T01:38:44;101847.03;;;-20.71;61.31
50292;BME280;36190;54.980;73.388;2023-02-12T01:41:14;101841.97;;;-20.71;61.49
50292;BME280;36190;54.980;73.388;2023-02-12T01:43:43;101851.88;;;-20.56;61.41
50292;BME280;36190;54.980;73.388;2023-02-12T01:46:12;101846.19;;;-20.51;61.47
50292;BME280;36190;54.980;73.388;2023-02-12T01:48:42;101855.69;;;-20.47;61.46
50292;BME280;36190;54.980;73.388;2023-02-12T01:51:15;101838.16;;;-20.40;61.44
50292;BME280;36190;54.980;73.388;2023-02-12T01:53:48;101847.03;;;-20.30;61.50
50292;BME280;36190;54.980;73.388;2023-02-12T01:56:17;101846.47;;;-20.23;61.29
50292;BME280;36190;54.980;73.388;2023-02-12T01:58:46;101857.63;;;-20.20;61.56
50292;BME280;36190;54.980;73.388;2023-02-12T02:01:20;101850.38;;;-20.10;61.45
50292;BME280;36190;54.980;73.388;2023-02-12T02:03:52;101855.88;;;-19.99;61.38
50292;BME280;36190;54.980;73.388;2023-02-12T02:06:26;101852.84;;;-19.89;61.44
50292;BME280;36190;54.980;73.388;2023-02-12T02:08:54;101851.63;;;-19.78;61.72
50292;BME280;36190;54.980;73.388;2023-02-12T02:11:22;101856.81;;;-19.74;61.59
50292;BME280;36190;54.980;73.388;2023-02-12T02:14:07;101855.25;;;-19.71;61.26
50292;BME280;36190;54.980;73.388;2023-02-12T02:16:58;101862.63;;;-19.77;61.29
50292;BME280;36190;54.980;73.388;2023-02-12T02:19:42;101864.38;;;-19.76;61.30
50292;BME280;36190;54.980;73.388;2023-02-12T02:22:26;101865.19;;;-19.77;61.29
50292;BME280;36190;54.980;73.388;2023-02-12T02:28:35;101860.03;;;-19.79;61.34
50292;BME280;36190;54.980;73.388;2023-02-12T02:31:10;101849.00;;;-19.79;61.34
50292;BME280;36190;54.980;73.388;2023-02-12T02:33:48;101868.41;;;-19.60;61.31
50292;BME280;36190;54.980;73.388;2023-02-12T02:36:24;101870.19;;;-19.57;61.37
50292;BME280;36190;54.980;73.388;2023-02-12T02:38:58;101868.44;;;-19.58;61.29
50292;BME280;36190;54.980;73.388;2023-02-12T02:41:32;101876.88;;;-19.59;61.35
50292;BME280;36190;54.980;73.388;2023-02-12T02:44:12;101880.34;;;-19.57;61.46
50292;BME280;36190;54.980;73.388;2023-02-12T02:46:45;101866.84;;;-19.56;61.28
50292;BME280;36190;54.980;73.388;2023-02-12T02:49:17;101884.06;;;-19.49;61.41
50292;BME280;36190;54.980;73.388;2023-02-12T02:51:49;101886.00;;;-19.42;61.46
50292;BME280;36190;54.980;73.388;2023-02-12T02:54:21;101881.91;;;-19.38;61.53
50292;BME280;36190;54.980;73.388;2023-02-12T02:56:55;101873.66;;;-19.32;61.56
50292;BME280;36190;54.980;73.388;2023-02-12T02:59:27;101879.66;;;-19.30;61.43
50292;BME280;36190;54.980;73.388;2023-02-12T03:02:00;101893.88;;;-19.36;61.45
50292;BME280;36190;54.980;73.388;2023-02-12T03:04:32;101886.00;;;-19.42;61.44
50292;BME280;36190;54.980;73.388;2023-02-12T03:07:05;101887.28;;;-19.53;61.27
50292;BME280;36190;54.980;73.388;2023-02-12T03:09:35;101896.09;;;-19.66;61.26
50292;BME280;36190;54.980;73.388;2023-02-12T03:12:08;101891.41;;;-19.78;61.33
50292;BME280;36190;54.980;73.388;2023-02-12T03:14:41;101883.84;;;-19.77;61.49
50292;BME280;36190;54.980;73.388;2023-02-12T03:17:15;101884.84;;;-19.73;61.52
50292;BME280;36190;54.980;73.388;2023-02-12T03:19:46;101879.88;;;-19.70;61.42
50292;BME280;36190;54.980;73.388;2023-02-12T03:22:17;101884.47;;;-19.61;61.41
50292;BME280;36190;54.980;73.388;2023-02-12T03:24:49;101879.47;;;-19.58;61.45
50292;BME280;36190;54.980;73.388;2023-02-12T03:27:25;101883.25;;;-19.48;61.14
50292;BME280;36190;54.980;73.388;2023-02-12T03:29:55;101887.78;;;-19.41;61.16
50292;BME280;36190;54.980;73.388;2023-02-12T03:32:29;101887.78;;;-19.41;61.12
50292;BME280;36190;54.980;73.388;2023-02-12T03:35:08;101893.53;;;-19.45;60.99
50292;BME280;36190;54.980;73.388;2023-02-12T03:37:39;101896.78;;;-19.49;61.00
50292;BME280;36190;54.980;73.388;2023-02-12T03:40:14;101894.00;;;-19.55;60.84
50292;BME280;36190;54.980;73.388;2023-02-12T03:42:47;101895.91;;;-19.50;60.86
50292;BME280;36190;54.980;73.388;2023-02-12T03:45:28;101899.88;;;-19.33;60.92
50292;BME280;36190;54.980;73.388;2023-02-12T03:48:03;101903.94;;;-19.16;60.98
50292;BME280;36190;54.980;73.388;2023-02-12T03:50:36;101895.94;;;-19.02;60.85
50292;BME280;36190;54.980;73.388;2023-02-12T03:53:06;101892.44;;;-18.82;60.84
50292;BME280;36190;54.980;73.388;2023-02-12T03:55:41;101903.19;;;-18.64;60.76
50292;BME280;36190;54.980;73.388;2023-02-12T03:58:19;101903.69;;;-18.50;60.67
50292;BME280;36190;54.980;73.388;2023-02-12T04:00:47;101898.09;;;-18.40;60.49
50292;BME280;36190;54.980;73.388;2023-02-12T04:03:17;101898.31;;;-18.34;60.26
50292;BME280;36190;54.980;73.388;2023-02-12T04:05:44;101895.94;;;-18.28;60.13
50292;BME280;36190;54.980;73.388;2023-02-12T04:08:12;101892.25;;;-18.37;59.88
50292;BME280;36190;54.980;73.388;2023-02-12T04:10:48;101888.34;;;-18.52;59.67
50292;BME280;36190;54.980;73.388;2023-02-12T04:13:25;101884.34;;;-18.70;59.67
50292;BME280;36190;54.980;73.388;2023-02-12T04:16:06;101878.56;;;-18.90;59.67
50292;BME280;36190;54.980;73.388;2023-02-12T04:18:42;101875.47;;;-19.05;59.69
50292;BME280;36190;54.980;73.388;2023-02-12T04:21:16;101877.56;;;-19.18;59.92
50292;BME280;36190;54.980;73.388;2023-02-12T04:23:51;101874.81;;;-19.24;59.98
50292;BME280;36190;54.980;73.388;2023-02-12T04:26:33;101860.56;;;-19.19;60.30
50292;BME280;36190;54.980;73.388;2023-02-12T04:29:13;101864.56;;;-19.03;60.11
50292;BME280;36190;54.980;73.388;2023-02-12T04:31:47;101861.81;;;-18.83;60.24
50292;BME280;36190;54.980;73.388;2023-02-12T04:34:22;101871.88;;;-18.62;60.06
50292;BME280;36190;54.980;73.388;2023-02-12T04:36:56;101867.22;;;-18.49;59.94
50292;BME280;36190;54.980;73.388;2023-02-12T04:39:28;101871.97;;;-18.34;59.76
50292;BME280;36190;54.980;73.388;2023-02-12T04:41:57;101875.72;;;-18.23;59.75
50292;BME280;36190;54.980;73.388;2023-02-12T04:44:29;101872.56;;;-18.16;59.59
50292;BME280;36190;54.980;73.388;2023-02-12T04:46:57;101875.56;;;-18.02;59.66
50292;BME280;36190;54.980;73.388;2023-02-12T04:49:26;101871.13;;;-17.80;59.60
50292;BME280;36190;54.980;73.388;2023-02-12T04:51:53;101874.22;;;-17.63;59.47
50292;BME280;36190;54.980;73.388;2023-02-12T04:54:21;101868.69;;;-17.48;59.47
50292;BME280;36190;54.980;73.388;2023-02-12T04:56:49;101881.09;;;-17.31;59.45
50292;BME280;36190;54.980;73.388;2023-02-12T04:59:16;101881.34;;;-17.22;59.30
50292;BME280;36190;54.980;73.388;2023-02-12T05:01:44;101877.97;;;-17.21;59.10
50292;BME280;36190;54.980;73.388;2023-02-12T05:04:13;101881.50;;;-17.17;59.18
50292;BME280;36190;54.980;73.388;2023-02-12T05:06:44;101851.81;;;-17.14;59.33
50292;BME280;36190;54.980;73.388;2023-02-12T05:09:14;101861.78;;;-16.91;59.42
50292;BME280;36190;54.980;73.388;2023-02-12T05:11:42;101863.09;;;-16.75;59.45
50292;BME280;36190;54.980;73.388;2023-02-12T05:14:09;101857.50;;;-16.60;59.33
50292;BME280;36190;54.980;73.388;2023-02-12T05:16:36;101864.69;;;-16.46;59.31
50292;BME280;36190;54.980;73.388;2023-02-12T05:19:04;101858.94;;;-16.37;59.03
50292;BME280;36190;54.980;73.388;2023-02-12T05:21:34;101864.81;;;-16.40;58.92
50292;BME280;36190;54.980;73.388;2023-02-12T05:24:04;101860.53;;;-16.42;58.93
50292;BME280;36190;54.980;73.388;2023-02-12T05:26:31;101856.19;;;-16.45;58.84
50292;BME280;36190;54.980;73.388;2023-02-12T05:28:59;101849.34;;;-16.46;58.84
50292;BME280;36190;54.980;73.388;2023-02-12T05:31:26;101843.97;;;-16.55;58.67
50292;BME280;36190;54.980;73.388;2023-02-12T05:33:54;101845.41;;;-16.67;58.69
50292;BME280;36190;54.980;73.388;2023-02-12T05:36:22;101842.72;;;-16.72;58.80
50292;BME280;36190;54.980;73.388;2023-02-12T05:38:51;101845.41;;;-16.67;58.74
50292;BME280;36190;54.980;73.388;2023-02-12T05:41:21;101841.94;;;-16.69;58.93
50292;BME280;36190;54.980;73.388;2023-02-12T05:43:49;101865.28;;;-16.55;58.79
50292;BME280;36190;54.980;73.388;2023-02-12T05:46:17;101858.53;;;-16.53;58.85
50292;BME280;36190;54.980;73.388;2023-02-12T05:48:45;101862.94;;;-16.47;58.83
50292;BME280;36190;54.980;73.388;2023-02-12T05:51:14;101872.53;;;-16.38;58.81
50292;BME280;36190;54.980;73.388;2023-02-12T05:53:42;101871.03;;;-16.30;58.76
50292;BME280;36190;54.980;73.388;2023-02-12T05:56:12;101877.16;;;-16.23;58.69
50292;BME280;36190;54.980;73.388;2023-02-12T05:58:44;101871.44;;;-16.14;58.59
50292;BME280;36190;54.980;73.388;2023-02-12T06:01:13;101876.72;;;-16.07;58.72
50292;BME280;36190;54.980;73.388;2023-02-12T06:03:41;101877.81;;;-15.97;58.57
50292;BME280;36190;54.980;73.388;2023-02-12T06:06:08;101880.59;;;-15.86;58.75
50292;BME280;36190;54.980;73.388;2023-02-12T06:08:37;101880.78;;;-15.78;58.57
50292;BME280;36190;54.980;73.388;2023-02-12T06:11:05;101860.28;;;-15.80;58.49
50292;BME280;36190;54.980;73.388;2023-02-12T06:13:33;101885.63;;;-15.54;58.44
50292;BME280;36190;54.980;73.388;2023-02-12T06:16:02;101893.63;;;-15.38;58.41
50292;BME280;36190;54.980;73.388;2023-02-12T06:18:30;101894.81;;;-15.24;58.47
50292;BME280;36190;54.980;73.388;2023-02-12T06:21:02;101891.75;;;-15.07;58.20
50292;BME280;36190;54.980;73.388;2023-02-12T06:23:29;101887.84;;;-14.88;58.17
50292;BME280;36190;54.980;73.388;2023-02-12T06:25:57;101886.47;;;-14.69;58.14
50292;BME280;36190;54.980;73.388;2023-02-12T06:28:24;101891.09;;;-14.51;58.10
50292;BME280;36190;54.980;73.388;2023-02-12T06:30:52;101894.03;;;-14.30;57.86
50292;BME280;36190;54.980;73.388;2023-02-12T06:33:21;101898.53;;;-14.17;57.71
50292;BME280;36190;54.980;73.388;2023-02-12T06:35:48;101900.47;;;-14.03;57.66
50292;BME280;36190;54.980;73.388;2023-02-12T06:38:16;101896.31;;;-13.95;57.61
50292;BME280;36190;54.980;73.388;2023-02-12T06:40:43;101906.75;;;-13.86;57.54
50292;BME280;36190;54.980;73.388;2023-02-12T06:43:10;101905.22;;;-13.74;57.49
50292;BME280;36190;54.980;73.388;2023-02-12T06:45:38;101908.06;;;-13.56;57.50
50292;BME280;36190;54.980;73.388;2023-02-12T06:48:05;101909.94;;;-13.45;57.50
50292;BME280;36190;54.980;73.388;2023-02-12T06:50:34;101908.38;;;-13.34;57.41
50292;BME280;36190;54.980;73.388;2023-02-12T06:53:02;101906.78;;;-13.22;57.36
50292;BME280;36190;54.980;73.388;2023-02-12T06:55:29;101899.28;;;-13.10;57.32
50292;BME280;36190;54.980;73.388;2023-02-12T06:57:57;101907.13;;;-12.98;57.27
50292;BME280;36190;54.980;73.388;2023-02-12T07:00:24;101908.94;;;-12.90;57.40
50292;BME280;36190;54.980;73.388;2023-02-12T07:02:53;101890.06;;;-12.92;57.49
50292;BME280;36190;54.980;73.388;2023-02-12T07:05:21;101900.63;;;-12.71;57.54
50292;BME280;36190;54.980;73.388;2023-02-12T07:07:50;101896.41;;;-12.61;57.56
50292;BME280;36190;54.980;73.388;2023-02-12T07:10:18;101894.78;;;-12.52;57.49
50292;BME280;36190;54.980;73.388;2023-02-12T07:12:46;101885.47;;;-12.43;57.69
50292;BME280;36190;54.980;73.388;2023-02-12T07:15:14;101881.34;;;-12.28;57.59
50292;BME280;36190;54.980;73.388;2023-02-12T07:17:41;101889.16;;;-12.16;57.59
50292;BME280;36190;54.980;73.388;2023-02-12T07:20:09;101892.66;;;-12.07;57.58
50292;BME280;36190;54.980;73.388;2023-02-12T07:22:37;101884.09;;;-12.06;57.61
50292;BME280;36190;54.980;73.388;2023-02-12T07:25:06;101891.78;;;-12.09;57.45
50292;BME280;36190;54.980;73.388;2023-02-12T07:27:35;101885.72;;;-12.14;57.68
50292;BME280;36190;54.980;73.388;2023-02-12T07:30:04;101871.94;;;-12.24;57.44
50292;BME280;36190;54.980;73.388;2023-02-12T07:32:32;101878.78;;;-12.25;57.50
50292;BME280;36190;54.980;73.388;2023-02-12T07:35:00;101866.97;;;-12.04;57.83
50292;BME280;36190;54.980;73.388;2023-02-12T07:37:27;101865.41;;;-11.80;57.82
50292;BME280;36190;54.980;73.388;2023-02-12T07:39:54;101862.13;;;-11.59;57.47
50292;BME280;36190;54.980;73.388;2023-02-12T07:42:23;101861.41;;;-11.33;57.52
50292;BME280;36190;54.980;73.388;2023-02-12T07:44:51;101864.94;;;-11.11;57.14
50292;BME280;36190;54.980;73.388;2023-02-12T07:47:19;101857.28;;;-10.87;56.92
50292;BME280;36190;54.980;73.388;2023-02-12T07:49:46;101860.81;;;-10.65;56.72
50292;BME280;36190;54.980;73.388;2023-02-12T07:52:13;101861.72;;;-10.44;56.70
50292;BME280;36190;54.980;73.388;2023-02-12T07:54:41;101865.16;;;-10.22;56.47
50292;BME280;36190;54.980;73.388;2023-02-12T07:57:08;101859.16;;;-10.04;56.34
50292;BME280;36190;54.980;73.388;2023-02-12T07:59:37;101864.31;;;-9.91;56.20
50292;BME280;36190;54.980;73.388;2023-02-12T08:02:05;101859.13;;;-9.79;56.16
50292;BME280;36190;54.980;73.388;2023-02-12T08:04:33;101868.59;;;-9.62;55.91
50292;BME280;36190;54.980;73.388;2023-02-12T08:07:00;101859.94;;;-9.46;55.66
50292;BME280;36190;54.980;73.388;2023-02-12T08:09:28;101860.75;;;-9.28;55.73
50292;BME280;36190;54.980;73.388;2023-02-12T08:11:56;101860.75;;;-9.14;55.71
50292;BME280;36190;54.980;73.388;2023-02-12T08:14:25;101871.03;;;-9.00;55.54
50292;BME280;36190;54.980;73.388;2023-02-12T08:16:54;101870.13;;;-8.88;55.51
50292;BME280;36190;54.980;73.388;2023-02-12T08:19:21;101863.16;;;-8.77;55.38
50292;BME280;36190;54.980;73.388;2023-02-12T08:21:49;101869.13;;;-8.64;55.54
50292;BME280;36190;54.980;73.388;2023-02-12T08:24:17;101864.72;;;-8.51;55.28
50292;BME280;36190;54.980;73.388;2023-02-12T08:26:46;101862.09;;;-8.42;55.11
50292;BME280;36190;54.980;73.388;2023-02-12T08:29:15;101854.28;;;-8.37;54.99
50292;BME280;36190;54.980;73.388;2023-02-12T08:31:45;101862.00;;;-8.29;54.93
50292;BME280;36190;54.980;73.388;2023-02-12T08:34:19;101860.25;;;-8.25;54.74
50292;BME280;36190;54.980;73.388;2023-02-12T08:36:49;101875.75;;;-8.21;54.75
50292;BME280;36190;54.980;73.388;2023-02-12T08:39:17;101867.09;;;-8.18;54.70
50292;BME280;36190;54.980;73.388;2023-02-12T08:41:45;101874.84;;;-8.15;54.65
50292;BME280;36190;54.980;73.388;2023-02-12T08:44:13;101879.16;;;-8.16;54.54
50292;BME280;36190;54.980;73.388;2023-02-12T08:46:43;101879.16;;;-8.17;54.41
50292;BME280;36190;54.980;73.388;2023-02-12T08:49:13;101877.47;;;-8.18;54.40
50292;BME280;36190;54.980;73.388;2023-02-12T08:51:44;101861.91;;;-8.18;54.45
50292;BME280;36190;54.980;73.388;2023-02-12T08:54:14;101858.41;;;-8.14;54.30
50292;BME280;36190;54.980;73.388;2023-02-12T08:56:42;101876.44;;;-7.98;54.32
50292;BME280;36190;54.980;73.388;2023-02-12T08:59:12;101876.38;;;-7.91;54.28
50292;BME280;36190;54.980;73.388;2023-02-12T09:01:41;101875.38;;;-7.76;54.21
50292;BME280;36190;54.980;73.388;2023-02-12T09:04:12;101867.47;;;-7.62;54.15
50292;BME280;36190;54.980;73.388;2023-02-12T09:06:41;101861.41;;;-7.56;53.73
50292;BME280;36190;54.980;73.388;2023-02-12T09:09:09;101857.84;;;-7.49;53.77
50292;BME280;36190;54.980;73.388;2023-02-12T09:11:37;101848.28;;;-7.42;53.72
50292;BME280;36190;54.980;73.388;2023-02-12T09:14:06;101854.25;;;-7.35;53.36
50292;BME280;36190;54.980;73.388;2023-02-12T09:16:36;101849.78;;;-7.21;53.37
50292;BME280;36190;54.980;73.388;2023-02-12T09:19:04;101854.09;;;-7.20;53.09
50292;BME280;36190;54.980;73.388;2023-02-12T09:21:32;101852.34;;;-7.18;52.90
50292;BME280;36190;54.980;73.388;2023-02-12T09:24:02;101847.13;;;-7.14;52.99
50292;BME280;36190;54.980;73.388;2023-02-12T09:26:29;101853.97;;;-7.10;53.05
50292;BME280;36190;54.980;73.388;2023-02-12T09:28:57;101857.38;;;-7.05;52.85
50292;BME280;36190;54.980;73.388;2023-02-12T09:31:26;101854.81;;;-7.08;52.39
50292;BME280;36190;54.980;73.388;2023-02-12T09:33:56;101857.50;;;-7.16;52.52
50292;BME280;36190;54.980;73.388;2023-02-12T09:36:25;101862.75;;;-7.21;52.53
50292;BME280;36190;54.980;73.388;2023-02-12T09:38:52;101860.16;;;-7.21;52.40
50292;BME280;36190;54.980;73.388;2023-02-12T09:41:49;101857.47;;;-7.11;51.88
50292;BME280;36190;54.980;73.388;2023-02-12T09:44:23;101867.78;;;-7.08;52.01
50292;BME280;36190;54.980;73.388;2023-02-12T09:46:56;101872.13;;;-7.10;52.05
50292;BME280;36190;54.980;73.388;2023-02-12T09:49:46;101877.41;;;-7.16;51.21
50292;BME280;36190;54.980;73.388;2023-02-12T09:52:18;101873.25;;;-7.33;51.76
50292;BME280;36190;54.980;73.388;2023-02-12T09:54:47;101861.31;;;-7.47;51.87
50292;BME280;36190;54.980;73.388;2023-02-12T09:57:22;101869.91;;;-7.44;51.85
50292;BME280;36190;54.980;73.388;2023-02-12T09:59:57;101862.09;;;-7.40;51.93
50292;BME280;36190;54.980;73.388;2023-02-12T10:02:26;101867.22;;;-7.34;52.00
50292;BME280;36190;54.980;73.388;2023-02-12T10:04:54;101875.78;;;-7.28;51.90
50292;BME280;36190;54.980;73.388;2023-02-12T10:07:32;101867.13;;;-7.24;51.73
50292;BME280;36190;54.980;73.388;2023-02-12T10:10:20;101866.06;;;-7.09;51.67
50292;BME280;36190;54.980;73.388;2023-02-12T10:12:58;101869.31;;;-6.92;51.76
50292;BME280;36190;54.980;73.388;2023-02-12T10:15:36;101861.53;;;-6.92;51.52
50292;BME280;36190;54.980;73.388;2023-02-12T10:18:15;101856.38;;;-6.93;51.02
50292;BME280;36190;54.980;73.388;2023-02-12T10:20:52;101852.94;;;-6.95;50.98
50292;BME280;36190;54.980;73.388;2023-02-12T10:23:38;101871.97;;;-6.95;50.75
50292;BME280;36190;54.980;73.388;2023-02-12T10:26:17;101875.47;;;-6.99;51.13
50292;BME280;36190;54.980;73.388;2023-02-12T10:28:47;101878.94;;;-7.00;51.35
50292;BME280;36190;54.980;73.388;2023-02-12T10:31:20;101883.19;;;-6.93;51.19
50292;BME280;36190;54.980;73.388;2023-02-12T10:33:50;101879.69;;;-6.92;51.19
50292;BME280;36190;54.980;73.388;2023-02-12T10:36:29;101880.59;;;-6.93;51.11
50292;BME280;36190;54.980;73.388;2023-02-12T10:39:11;101887.47;;;-6.90;51.25
50292;BME280;36190;54.980;73.388;2023-02-12T10:41:44;101879.69;;;-6.88;51.17
50292;BME280;36190;54.980;73.388;2023-02-12T10:44:15;101885.66;;;-6.82;51.11
50292;BME280;36190;54.980;73.388;2023-02-12T10:46:42;101890.00;;;-6.85;51.14
50292;BME280;36190;54.980;73.388;2023-02-12T10:49:11;101890.13;;;-6.95;51.02
50292;BME280;36190;54.980;73.388;2023-02-12T10:51:52;101888.53;;;-7.08;51.01
50292;BME280;36190;54.980;73.388;2023-02-12T10:54:34;101899.91;;;-7.20;51.07
50292;BME280;36190;54.980;73.388;2023-02-12T10:57:11;101901.72;;;-7.28;51.14
50292;BME280;36190;54.980;73.388;2023-02-12T10:59:42;101900.09;;;-7.37;51.34
50292;BME280;36190;54.980;73.388;2023-02-12T11:02:23;101897.59;;;-7.47;51.19
50292;BME280;36190;54.980;73.388;2023-02-12T11:04:52;101910.66;;;-7.59;51.87
50292;BME280;36190;54.980;73.388;2023-02-12T11:07:21;101918.50;;;-7.62;52.04
50292;BME280;36190;54.980;73.388;2023-02-12T11:09:50;101892.75;;;-7.84;52.05
50292;BME280;36190;54.980;73.388;2023-02-12T11:12:22;101923.81;;;-7.81;52.00
50292;BME280;36190;54.980;73.388;2023-02-12T11:14:54;101933.38;;;-7.88;51.74
50292;BME280;36190;54.980;73.388;2023-02-12T11:17:25;101912.91;;;-8.26;52.25
50292;BME280;36190;54.980;73.388;2023-02-12T11:20:24;101930.28;;;-8.49;51.97
50292;BME280;36190;54.980;73.388;2023-02-12T11:22:55;101931.38;;;-8.95;52.76
50292;BME280;36190;54.980;73.388;2023-02-12T11:25:24;101928.84;;;-9.23;53.13
50292;BME280;36190;54.980;73.388;2023-02-12T11:28:01;101932.31;;;-9.40;53.12
50292;BME280;36190;54.980;73.388;2023-02-12T11:30:31;101936.63;;;-9.59;53.53
50292;BME280;36190;54.980;73.388;2023-02-12T11:33:18;101940.09;;;-9.74;53.32
50292;BME280;36190;54.980;73.388;2023-02-12T11:35:52;101936.63;;;-9.99;53.92
50292;BME280;36190;54.980;73.388;2023-02-12T11:38:27;101936.59;;;-10.04;54.03
50292;BME280;36190;54.980;73.388;2023-02-12T11:40:56;101946.94;;;-10.07;53.65
50292;BME280;36190;54.980;73.388;2023-02-12T11:43:24;101954.66;;;-10.23;54.21
50292;BME280;36190;54.980;73.388;2023-02-12T11:45:56;101952.06;;;-10.32;54.20
50292;BME280;36190;54.980;73.388;2023-02-12T11:48:26;101952.03;;;-10.41;54.30
50292;BME280;36190;54.980;73.388;2023-02-12T11:50:57;101952.00;;;-10.51;54.35
50292;BME280;36190;54.980;73.388;2023-02-12T11:53:29;101948.53;;;-10.65;53.97
50292;BME280;36190;54.980;73.388;2023-02-12T11:55:59;101941.59;;;-10.79;54.37
50292;BME280;36190;54.980;73.388;2023-02-12T11:58:27;101944.16;;;-10.86;54.45
50292;BME280;36190;54.980;73.388;2023-02-12T12:01:02;101933.66;;;-11.16;54.52
50292;BME280;36190;54.980;73.388;2023-02-12T12:03:36;101945.63;;;-11.27;54.69
50292;BME280;36190;54.980;73.388;2023-02-12T12:06:11;101952.41;;;-11.37;54.78
50292;BME280;36190;54.980;73.388;2023-02-12T12:08:43;101954.06;;;-11.46;54.91
50292;BME280;36190;54.980;73.388;2023-02-12T12:11:18;101953.09;;;-11.62;54.92
50292;BME280;36190;54.980;73.388;2023-02-12T12:13:50;101960.78;;;-11.65;55.10
50292;BME280;36190;54.980;73.388;2023-02-12T12:16:24;101964.19;;;-11.70;55.14
50292;BME280;36190;54.980;73.388;2023-02-12T12:19:16;101962.34;;;-11.85;55.32
50292;BME280;36190;54.980;73.388;2023-02-12T12:22:28;101976.84;;;-11.97;55.37
50292;BME280;36190;54.980;73.388;2023-02-12T12:24:59;101957.75;;;-12.21;55.68
50292;BME280;36190;54.980;73.388;2023-02-12T12:27:36;101972.28;;;-12.23;55.81
50292;BME280;36190;54.980;73.388;2023-02-12T12:30:41;101985.09;;;-12.29;55.87
50292;BME280;36190;54.980;73.388;2023-02-12T12:33:18;101989.28;;;-12.39;55.92
50292;BME280;36190;54.980;73.388;2023-02-12T12:35:56;101990.88;;;-12.47;56.12
50292;BME280;36190;54.980;73.388;2023-02-12T12:38:34;101992.53;;;-12.52;56.16
50292;BME280;36190;54.980;73.388;2023-02-12T12:41:12;101987.31;;;-12.60;56.14
50292;BME280;36190;54.980;73.388;2023-02-12T12:43:51;102006.09;;;-12.64;56.49
50292;BME280;36190;54.980;73.388;2023-02-12T12:46:38;102013.69;;;-12.74;56.36
50292;BME280;36190;54.980;73.388;2023-02-12T12:49:33;102007.59;;;-12.80;56.41
50292;BME280;36190;54.980;73.388;2023-02-12T12:55:21;102022.16;;;-12.82;56.75
50292;BME280;36190;54.980;73.388;2023-02-12T12:57:58;102019.56;;;-12.84;56.86
50292;BME280;36190;54.980;73.388;2023-02-12T13:00:43;102023.84;;;-12.83;56.77